createdAt,value
2023-05-07T00:01:38.400Z,95530.31
2023-05-07T00:04:07.134Z,95532.13
2023-05-07T00:06:35.536Z,95539.00
2023-05-07T00:09:04.688Z,95536.22
2023-05-07T00:11:34.136Z,95538.53
2023-05-07T00:14:03.436Z,95534.44
2023-05-07T00:16:33.267Z,95537.84
2023-05-07T00:19:01.575Z,95543.31
2023-05-07T00:21:29.880Z,95544.91
2023-05-07T00:23:58.122Z,95538.59
2023-05-07T00:26:26.377Z,95545.75
2023-05-07T00:28:54.704Z,95531.09
2023-05-07T00:31:22.998Z,95538.81
2023-05-07T00:33:52.658Z,95537.16
2023-05-07T00:36:21.153Z,95543.09
2023-05-07T00:38:49.509Z,95551.28
2023-05-07T00:41:17.914Z,95539.88
2023-05-07T00:43:46.557Z,95534.16
2023-05-07T00:46:17.032Z,95538.56
2023-05-07T00:48:45.471Z,95539.81
2023-05-07T00:51:15.363Z,95544.31
2023-05-07T00:53:43.707Z,95548.28
2023-05-07T00:56:12.356Z,95537.81
2023-05-07T00:58:40.822Z,95555.84
2023-05-07T01:01:09.201Z,95559.88
2023-05-07T01:03:37.619Z,95561.72
2023-05-07T01:06:09.829Z,95545.13
2023-05-07T01:08:40.956Z,95557.69
2023-05-07T01:11:10.069Z,95559.91
2023-05-07T01:13:39.220Z,95559.25
2023-05-07T01:16:08.512Z,95555.47
2023-05-07T01:18:36.890Z,95550.66
2023-05-07T01:21:07.002Z,95553.00
2023-05-07T01:23:37.900Z,95533.72
2023-05-07T01:26:06.142Z,95556.47
2023-05-07T01:28:34.438Z,95574.88
2023-05-07T01:31:05.390Z,95567.16
2023-05-07T01:33:36.861Z,95566.63
2023-05-07T01:36:07.853Z,95570.34
2023-05-07T01:38:38.656Z,95571.91
2023-05-07T01:41:07.397Z,95575.19
2023-05-07T01:43:35.914Z,95575.44
2023-05-07T01:46:06.007Z,95581.31
2023-05-07T01:48:35.723Z,95571.75
2023-05-07T01:51:04.488Z,95573.59
2023-05-07T01:53:39.583Z,95582.38
2023-05-07T01:56:08.553Z,95573.56
2023-05-07T01:58:36.873Z,95564.19
2023-05-07T02:01:05.191Z,95560.91
2023-05-07T02:03:33.588Z,95557.16
2023-05-07T02:06:02.571Z,95556.09
2023-05-07T02:08:31.245Z,95554.75
2023-05-07T02:11:00.950Z,95556.34
2023-05-07T02:13:31.713Z,95561.38
2023-05-07T02:16:00.064Z,95556.06
2023-05-07T02:18:28.719Z,95508.38
2023-05-07T02:20:57.142Z,95506.56
2023-05-07T02:23:25.818Z,95525.50
2023-05-07T02:25:54.055Z,95566.34
2023-05-07T02:28:23.735Z,95568.06
2023-05-07T02:30:51.989Z,95567.50
2023-05-07T02:33:20.522Z,95564.25
2023-05-07T02:35:48.738Z,95569.03
2023-05-07T02:38:17.032Z,95562.41
2023-05-07T02:40:45.336Z,95569.22
2023-05-07T02:43:13.602Z,95562.84
2023-05-07T02:45:44.423Z,95556.44
2023-05-07T02:48:12.751Z,95542.97
2023-05-07T02:50:41.196Z,95569.53
2023-05-07T02:53:09.513Z,95560.56
2023-05-07T02:55:37.830Z,95565.44
2023-05-07T02:58:06.089Z,95561.69
2023-05-07T03:00:34.516Z,95558.97
2023-05-07T03:03:04.189Z,95556.31
2023-05-07T03:05:32.923Z,95560.88
2023-05-07T03:08:01.158Z,95557.91
2023-05-07T03:10:29.399Z,95565.06
2023-05-07T03:12:57.713Z,95562.94
2023-05-07T03:15:25.974Z,95559.50
2023-05-07T03:17:54.311Z,95550.47
2023-05-07T03:20:23.964Z,95477.56
2023-05-07T03:22:52.283Z,95558.41
2023-05-07T03:25:20.720Z,95564.25
2023-05-07T03:27:49.122Z,95570.94
2023-05-07T03:30:17.428Z,95493.84
2023-05-07T03:32:45.843Z,95577.59
2023-05-07T03:35:14.177Z,95584.22
2023-05-07T03:37:43.818Z,95584.75
2023-05-07T03:40:13.732Z,95559.25
2023-05-07T03:42:42.334Z,95575.97
2023-05-07T03:45:11.397Z,95581.28
2023-05-07T03:47:39.966Z,95573.84
2023-05-07T03:50:08.794Z,95584.97
2023-05-07T03:52:37.145Z,95579.94
2023-05-07T03:55:08.074Z,95589.50
2023-05-07T03:57:36.414Z,95583.91
2023-05-07T04:00:05.645Z,95581.25
2023-05-07T04:02:35.190Z,95573.28
2023-05-07T04:05:03.553Z,95585.47
2023-05-07T04:07:31.820Z,95591.06
2023-05-07T04:10:00.177Z,95583.59
2023-05-07T04:12:29.881Z,95578.00
2023-05-07T04:14:58.267Z,95581.66
2023-05-07T04:17:26.621Z,95586.44
2023-05-07T04:19:54.989Z,95590.41
2023-05-07T04:22:23.183Z,95593.28
2023-05-07T04:24:51.494Z,95593.75
2023-05-07T04:27:19.904Z,95539.50
2023-05-07T04:29:49.541Z,95595.53
2023-05-07T04:32:18.803Z,95590.91
2023-05-07T04:34:47.277Z,95593.16
2023-05-07T04:37:15.566Z,95595.72
2023-05-07T04:39:43.807Z,95603.03
2023-05-07T04:42:16.857Z,95605.56
2023-05-07T04:44:46.229Z,95606.19
2023-05-07T04:47:16.107Z,95596.50
2023-05-07T04:49:44.438Z,95598.78
2023-05-07T04:52:12.666Z,95594.31
2023-05-07T04:54:40.917Z,95598.41
2023-05-07T04:57:09.579Z,95590.75
2023-05-07T04:59:37.824Z,95596.53
2023-05-07T05:02:06.563Z,95596.72
2023-05-07T05:04:36.306Z,95594.84
2023-05-07T05:07:05.743Z,95602.72
2023-05-07T05:09:34.142Z,95602.00
2023-05-07T05:12:15.790Z,95603.25
2023-05-07T05:14:44.137Z,95579.88
2023-05-07T05:17:17.807Z,95578.09
2023-05-07T05:19:47.432Z,95603.91
2023-05-07T05:22:15.707Z,95599.13
2023-05-07T05:24:43.960Z,95588.34
2023-05-07T05:27:12.305Z,95588.34
2023-05-07T05:29:40.581Z,95595.44
2023-05-07T05:32:08.908Z,95598.72
2023-05-07T05:34:37.254Z,95594.13
2023-05-07T05:37:07.194Z,95591.38
2023-05-07T05:39:35.530Z,95544.09
2023-05-07T05:42:03.970Z,95595.06
2023-05-07T05:44:32.164Z,95595.97
2023-05-07T05:47:00.617Z,95596.78
2023-05-07T05:49:28.859Z,95592.88
2023-05-07T05:51:57.277Z,95585.94
2023-05-07T05:54:26.923Z,95587.88
2023-05-07T05:56:55.334Z,95598.84
2023-05-07T05:59:23.678Z,95592.34
2023-05-07T06:01:52.269Z,95594.34
2023-05-07T06:04:20.587Z,95599.84
2023-05-07T06:06:48.871Z,95590.25
2023-05-07T06:09:17.141Z,95587.69
2023-05-07T06:11:46.865Z,95586.84
2023-05-07T06:14:15.293Z,95539.06
2023-05-07T06:16:43.651Z,95573.53
2023-05-07T06:19:12.021Z,95590.25
2023-05-07T06:21:41.578Z,95593.53
2023-05-07T06:24:10.169Z,95586.84
2023-05-07T06:26:38.358Z,95580.47
2023-05-07T06:29:08.741Z,95586.16
2023-05-07T06:31:37.165Z,95591.75
2023-05-07T06:34:06.055Z,95571.06
2023-05-07T06:36:34.333Z,95573.75
2023-05-07T06:39:02.599Z,95557.47
2023-05-07T06:41:30.820Z,95550.97
2023-05-07T06:43:58.995Z,95556.78
2023-05-07T06:46:29.566Z,95558.53
2023-05-07T06:48:58.606Z,95548.88
2023-05-07T06:51:26.862Z,95550.88
2023-05-07T06:53:55.195Z,95553.34
2023-05-07T06:56:24.063Z,95550.81
2023-05-07T06:58:52.313Z,95557.38
2023-05-07T07:01:21.134Z,95542.91
2023-05-07T07:03:52.397Z,95544.09
2023-05-07T07:06:21.185Z,95550.53
2023-05-07T07:08:49.578Z,95551.69
2023-05-07T07:11:18.117Z,95542.41
2023-05-07T07:13:46.380Z,95543.25
2023-05-07T07:16:14.736Z,95537.50
2023-05-07T07:18:43.165Z,95473.22
2023-05-07T07:21:13.004Z,95532.94
2023-05-07T07:23:41.593Z,95522.38
2023-05-07T07:26:09.852Z,95522.59
2023-05-07T07:28:45.257Z,95526.22
2023-05-07T07:31:15.596Z,95526.28
2023-05-07T07:33:43.942Z,95526.41
2023-05-07T07:36:13.651Z,95524.56
2023-05-07T07:38:41.907Z,95492.84
2023-05-07T07:41:10.725Z,95525.59
2023-05-07T07:43:39.018Z,95531.38
2023-05-07T07:46:07.329Z,95514.44
2023-05-07T07:48:35.725Z,95532.84
2023-05-07T07:51:04.021Z,95529.38
2023-05-07T07:53:33.692Z,95530.56
2023-05-07T07:56:03.499Z,95524.63
2023-05-07T07:58:33.523Z,95524.09
2023-05-07T08:01:01.745Z,95524.09
2023-05-07T08:03:33.049Z,95517.75
2023-05-07T08:06:01.368Z,95514.59
2023-05-07T08:08:29.580Z,95503.94
2023-05-07T08:10:59.556Z,95512.75
2023-05-07T08:13:28.105Z,95498.41
2023-05-07T08:15:56.490Z,95494.38
2023-05-07T08:18:25.968Z,95381.25
2023-05-07T08:20:54.408Z,95492.47
2023-05-07T08:23:22.886Z,95463.09
2023-05-07T08:25:52.389Z,95472.94
2023-05-07T08:28:22.619Z,95472.41
2023-05-07T08:30:50.902Z,95477.63
2023-05-07T08:33:19.289Z,95468.00
2023-05-07T08:35:47.527Z,95470.50
2023-05-07T08:38:15.785Z,95465.94
2023-05-07T08:40:44.036Z,95464.19
2023-05-07T08:43:15.426Z,95461.81
2023-05-07T08:45:48.137Z,95462.06
2023-05-07T08:48:18.758Z,95454.78
2023-05-07T08:50:47.297Z,95453.75
2023-05-07T08:53:17.551Z,95452.84
2023-05-07T08:55:46.570Z,95444.81
2023-05-07T08:58:14.909Z,95408.94
2023-05-07T09:00:44.768Z,95433.28
2023-05-07T09:03:14.032Z,95430.47
2023-05-07T09:05:42.731Z,95437.41
2023-05-07T09:08:11.204Z,95438.28
2023-05-07T09:10:39.637Z,95413.94
2023-05-07T09:13:08.083Z,95395.13
2023-05-07T09:15:36.454Z,95428.75
2023-05-07T09:18:06.615Z,95426.16
2023-05-07T09:20:35.015Z,94924.78
2023-05-07T09:23:03.266Z,95380.78
2023-05-07T09:25:32.814Z,95408.28
2023-05-07T09:28:01.932Z,95400.44
2023-05-07T09:30:31.454Z,95401.97
2023-05-07T09:33:01.571Z,95399.81
2023-05-07T09:35:31.773Z,95396.19
2023-05-07T09:38:03.602Z,95382.44
2023-05-07T09:40:33.252Z,95380.94
2023-05-07T09:43:12.898Z,95322.09
2023-05-07T09:45:41.303Z,95400.25
2023-05-07T09:48:10.949Z,95375.84
2023-05-07T09:50:48.264Z,95370.53
2023-05-07T09:53:17.625Z,95356.88
2023-05-07T09:55:46.202Z,95376.91
2023-05-07T09:58:15.241Z,95363.94
2023-05-07T10:00:44.885Z,95345.97
2023-05-07T10:03:14.107Z,95365.97
2023-05-07T10:05:45.660Z,95365.47
2023-05-07T10:08:32.340Z,95326.16
2023-05-07T10:11:01.957Z,95364.00
2023-05-07T10:13:31.124Z,95351.22
2023-05-07T10:15:59.954Z,95356.72
2023-05-07T10:18:31.118Z,95354.34
2023-05-07T10:21:07.394Z,95329.28
2023-05-07T10:23:36.483Z,95345.13
2023-05-07T10:26:07.693Z,95318.22
2023-05-07T10:28:40.777Z,95344.75
2023-05-07T10:31:25.966Z,95333.66
2023-05-07T10:33:57.543Z,95331.16
2023-05-07T10:36:28.907Z,95329.41
2023-05-07T10:38:57.966Z,95318.47
2023-05-07T10:41:26.293Z,95328.59
2023-05-07T10:43:54.518Z,95324.66
2023-05-07T10:46:24.691Z,95319.91
2023-05-07T10:49:12.636Z,95309.03
2023-05-07T10:51:42.414Z,95323.16
2023-05-07T10:54:28.560Z,95239.66
2023-05-07T10:56:56.928Z,95312.97
2023-05-07T10:59:43.057Z,95312.59
2023-05-07T11:02:12.540Z,95281.47
2023-05-07T11:04:42.956Z,95297.47
2023-05-07T11:07:31.151Z,95297.84
2023-05-07T11:10:05.809Z,95298.13
2023-05-07T11:12:54.081Z,95262.00
2023-05-07T11:15:45.535Z,95291.31
2023-05-07T11:18:18.416Z,95298.94
2023-05-07T11:20:57.878Z,95292.41
2023-05-07T11:24:12.001Z,95294.91
2023-05-07T11:26:50.169Z,95273.34
2023-05-07T11:29:22.504Z,95287.78
2023-05-07T11:31:53.130Z,95274.28
2023-05-07T11:34:25.163Z,95289.09
2023-05-07T11:36:54.178Z,95310.31
2023-05-07T11:39:30.856Z,95301.41
2023-05-07T11:42:01.155Z,95298.69
2023-05-07T11:44:43.810Z,95305.03
2023-05-07T11:47:13.111Z,95296.38
2023-05-07T11:49:41.857Z,95264.16
2023-05-07T11:52:10.162Z,95288.72
2023-05-07T11:54:39.148Z,95283.66
2023-05-07T11:57:09.478Z,95295.63
2023-05-07T11:59:42.331Z,95288.25
2023-05-07T12:02:11.003Z,95284.16
2023-05-07T12:04:40.950Z,95269.09
2023-05-07T12:07:14.073Z,95277.84
2023-05-07T12:09:42.623Z,95264.47
2023-05-07T12:12:12.647Z,95273.19
2023-05-07T12:14:41.496Z,95272.81
2023-05-07T12:17:10.330Z,95271.63
2023-05-07T12:19:39.823Z,95271.63
2023-05-07T12:22:09.893Z,95273.59
2023-05-07T12:24:47.999Z,95267.56
2023-05-07T12:27:19.037Z,95276.00
2023-05-07T12:29:48.557Z,95276.09
2023-05-07T12:32:17.688Z,95234.97
2023-05-07T12:34:46.420Z,95256.44
2023-05-07T12:37:14.954Z,95233.31
2023-05-07T12:39:49.456Z,95250.91
2023-05-07T12:42:25.041Z,95224.31
2023-05-07T12:44:53.460Z,95246.47
2023-05-07T12:47:23.640Z,95238.22
2023-05-07T12:49:52.704Z,95236.44
2023-05-07T12:52:21.208Z,95242.25
2023-05-07T12:54:50.472Z,95247.69
2023-05-07T12:57:22.752Z,95246.28
2023-05-07T12:59:51.008Z,95237.66
2023-05-07T13:02:19.279Z,95227.84
2023-05-07T13:04:48.928Z,95234.50
2023-05-07T13:07:17.169Z,95231.09
2023-05-07T13:09:45.494Z,95238.09
2023-05-07T13:12:13.715Z,95229.94
2023-05-07T13:14:43.384Z,95228.53
2023-05-07T13:17:11.551Z,95218.44
2023-05-07T13:19:39.921Z,95219.78
2023-05-07T13:22:08.158Z,95231.25
2023-05-07T13:24:36.436Z,95232.09
2023-05-07T13:27:05.237Z,95230.84
2023-05-07T13:29:33.524Z,95215.88
2023-05-07T13:32:03.215Z,95220.13
2023-05-07T13:34:31.549Z,95204.84
2023-05-07T13:36:59.775Z,95213.16
2023-05-07T13:39:28.122Z,95215.41
2023-05-07T13:41:56.436Z,95224.03
2023-05-07T13:44:24.675Z,95214.69
2023-05-07T13:46:53.530Z,95217.00
2023-05-07T13:49:23.161Z,95181.41
2023-05-07T13:51:51.367Z,95218.47
2023-05-07T13:54:19.730Z,95206.28
2023-05-07T13:56:48.026Z,95205.78
2023-05-07T13:59:16.396Z,95211.47
2023-05-07T14:01:44.773Z,95200.78
2023-05-07T14:04:13.058Z,95207.22
2023-05-07T14:06:42.832Z,95209.81
2023-05-07T14:09:13.302Z,95221.56
2023-05-07T14:11:41.760Z,95223.88
2023-05-07T14:14:11.990Z,95214.31
2023-05-07T14:16:40.384Z,95227.78
2023-05-07T14:19:08.647Z,95226.41
2023-05-07T14:21:37.149Z,95233.00
2023-05-07T14:24:08.286Z,95223.09
2023-05-07T14:26:36.962Z,95244.28
2023-05-07T14:29:05.423Z,95224.38
2023-05-07T14:31:34.587Z,95180.97
2023-05-07T14:34:03.491Z,95237.69
2023-05-07T14:36:32.916Z,95243.59
2023-05-07T14:39:01.375Z,95252.47
2023-05-07T14:41:31.020Z,95253.34
2023-05-07T14:44:00.131Z,95242.94
2023-05-07T14:46:28.473Z,95237.94
2023-05-07T14:48:56.802Z,95248.47
2023-05-07T14:51:25.196Z,95250.38
2023-05-07T14:53:53.433Z,95240.72
2023-05-07T14:56:21.679Z,95258.47
2023-05-07T14:58:51.660Z,95256.97
2023-05-07T15:01:20.007Z,95254.91
2023-05-07T15:03:48.423Z,95269.53
2023-05-07T15:06:16.941Z,95242.16
2023-05-07T15:08:45.149Z,95254.88
2023-05-07T15:11:13.472Z,95240.94
2023-05-07T15:13:41.732Z,95260.28
2023-05-07T15:16:11.416Z,95261.09
2023-05-07T15:18:39.725Z,95258.50
2023-05-07T15:21:08.058Z,95258.66
2023-05-07T15:23:36.443Z,95228.59
2023-05-07T15:26:04.765Z,95266.03
2023-05-07T15:28:33.160Z,95218.00
2023-05-07T15:31:01.673Z,95263.72
2023-05-07T15:33:31.526Z,95265.16
2023-05-07T15:36:00.465Z,95267.47
2023-05-07T15:38:28.711Z,95259.38
2023-05-07T15:40:56.991Z,95206.94
2023-05-07T15:43:26.042Z,95259.06
2023-05-07T15:45:54.520Z,95261.41
2023-05-07T15:48:22.850Z,95260.84
2023-05-07T15:50:52.525Z,95258.56
2023-05-07T15:53:20.841Z,95262.31
2023-05-07T15:55:49.623Z,95265.44
2023-05-07T15:58:20.477Z,95267.75
2023-05-07T16:00:48.893Z,95269.44
2023-05-07T16:03:19.104Z,95275.97
2023-05-07T16:05:47.653Z,95272.50
2023-05-07T16:08:17.333Z,95269.19
2023-05-07T16:10:45.601Z,95269.09
2023-05-07T16:13:13.836Z,95274.69
2023-05-07T16:15:42.181Z,95282.19
2023-05-07T16:18:10.868Z,95281.09
2023-05-07T16:20:39.394Z,95280.34
2023-05-07T16:23:07.642Z,95282.94
2023-05-07T16:25:37.403Z,95254.13
2023-05-07T16:28:06.053Z,95290.97
2023-05-07T16:30:34.339Z,95288.84
2023-05-07T16:33:03.126Z,95284.59
2023-05-07T16:35:31.555Z,95284.13
2023-05-07T16:37:59.867Z,95282.69
2023-05-07T16:40:28.448Z,95300.09
2023-05-07T16:42:58.157Z,95300.81
2023-05-07T16:45:26.900Z,95307.31
2023-05-07T16:47:56.815Z,95280.47
2023-05-07T16:50:25.149Z,95317.84
2023-05-07T16:52:56.317Z,95320.56
2023-05-07T16:55:24.620Z,95327.16
2023-05-07T16:57:53.046Z,95332.00
2023-05-07T17:00:22.879Z,95332.81
2023-05-07T17:02:51.445Z,95333.66
2023-05-07T17:05:19.948Z,95345.19
2023-05-07T17:07:48.249Z,95323.34
2023-05-07T17:10:16.538Z,95341.75
2023-05-07T17:12:44.920Z,95349.53
2023-05-07T17:15:13.975Z,95350.75
2023-05-07T17:17:43.876Z,95347.06
2023-05-07T17:20:13.905Z,95352.88
2023-05-07T17:22:42.445Z,95353.47
2023-05-07T17:25:12.986Z,95359.25
2023-05-07T17:27:42.732Z,95363.03
2023-05-07T17:30:12.796Z,95374.75
2023-05-07T17:32:41.566Z,95327.88
2023-05-07T17:35:11.639Z,95389.88
2023-05-07T17:37:40.261Z,95375.31
2023-05-07T17:40:09.761Z,95393.69
2023-05-07T17:42:38.109Z,95403.69
2023-05-07T17:45:07.182Z,95411.84
2023-05-07T17:47:35.845Z,95406.94
2023-05-07T17:50:06.080Z,95411.06
2023-05-07T17:52:36.690Z,95406.03
2023-05-07T17:55:05.105Z,95397.13
2023-05-07T17:57:35.431Z,95409.47
2023-05-07T18:00:04.936Z,95392.91
2023-05-07T18:02:33.371Z,95409.75
2023-05-07T18:05:01.831Z,95421.19
2023-05-07T18:07:30.224Z,95424.91
2023-05-07T18:09:59.889Z,95419.75
2023-05-07T18:12:28.268Z,95445.56
2023-05-07T18:14:56.592Z,95444.28
2023-05-07T18:17:26.836Z,95453.53
2023-05-07T18:20:09.148Z,95450.84
2023-05-07T18:22:37.528Z,95448.84
2023-05-07T18:25:08.564Z,95466.97
2023-05-07T18:27:36.922Z,95466.50
2023-05-07T18:30:06.845Z,95468.84
2023-05-07T18:32:35.662Z,95392.00
2023-05-07T18:35:04.041Z,95469.00
2023-05-07T18:37:32.406Z,95403.34
2023-05-07T18:40:04.012Z,95471.09
2023-05-07T18:42:36.263Z,95467.28
2023-05-07T18:45:06.011Z,95444.41
2023-05-07T18:47:34.493Z,95401.34
2023-05-07T18:50:02.767Z,95472.06
2023-05-07T18:52:31.177Z,95478.72
2023-05-07T18:54:59.554Z,95491.53
2023-05-07T18:57:29.637Z,95490.91
2023-05-07T18:59:59.598Z,95475.91
2023-05-07T19:02:27.873Z,95502.59
2023-05-07T19:04:56.246Z,95499.91
2023-05-07T19:07:24.624Z,95510.03
2023-05-07T19:10:04.135Z,95451.88
2023-05-07T19:12:33.505Z,95521.88
2023-05-07T19:15:03.344Z,95522.34
2023-05-07T19:17:31.641Z,95522.16
2023-05-07T19:20:00.000Z,95524.66
2023-05-07T19:22:28.584Z,95532.28
2023-05-07T19:24:57.636Z,95533.88
2023-05-07T19:27:29.176Z,95466.19
2023-05-07T19:29:58.008Z,95499.72
2023-05-07T19:32:30.516Z,95527.69
2023-05-07T19:34:58.851Z,95533.03
2023-05-07T19:37:28.039Z,95529.00
2023-05-07T19:39:56.300Z,95500.13
2023-05-07T19:42:24.625Z,95531.59
2023-05-07T19:44:52.943Z,95529.34
2023-05-07T19:47:21.282Z,95537.16
2023-05-07T19:49:51.158Z,95448.69
2023-05-07T19:52:19.416Z,95533.59
2023-05-07T19:54:47.618Z,95527.28
2023-05-07T19:57:17.904Z,95536.50
2023-05-07T19:59:48.148Z,95506.72
2023-05-07T20:02:16.652Z,95542.63
2023-05-07T20:04:45.128Z,95544.53
2023-05-07T20:07:14.807Z,95555.22
2023-05-07T20:09:43.105Z,95512.47
2023-05-07T20:12:11.392Z,95548.88
2023-05-07T20:14:39.594Z,95560.53
2023-05-07T20:17:08.090Z,95552.69
2023-05-07T20:19:36.404Z,95563.78
2023-05-07T20:22:04.861Z,95560.03
2023-05-07T20:24:39.216Z,95573.59
2023-05-07T20:27:07.561Z,95575.06
2023-05-07T20:29:36.125Z,95574.94
2023-05-07T20:32:04.559Z,95569.09
2023-05-07T20:34:32.894Z,95545.13
2023-05-07T20:37:01.906Z,95565.28
2023-05-07T20:39:30.233Z,95567.63
2023-05-07T20:41:59.820Z,95575.00
2023-05-07T20:44:28.141Z,95572.69
2023-05-07T20:46:56.470Z,95575.84
2023-05-07T20:49:24.805Z,95583.31
2023-05-07T20:51:53.079Z,95587.31
2023-05-07T20:54:23.172Z,95586.63
2023-05-07T20:56:51.374Z,95603.75
2023-05-07T20:59:21.192Z,95585.06
2023-05-07T21:01:49.584Z,95596.94
2023-05-07T21:04:17.936Z,95586.75
2023-05-07T21:06:46.250Z,95600.91
2023-05-07T21:09:14.543Z,95605.22
2023-05-07T21:11:42.723Z,95605.34
2023-05-07T21:14:10.948Z,95599.78
2023-05-07T21:16:42.791Z,95609.66
2023-05-07T21:19:11.140Z,95617.53
2023-05-07T21:21:39.466Z,95615.22
2023-05-07T21:24:08.712Z,95601.53
2023-05-07T21:26:36.981Z,95625.94
2023-05-07T21:29:05.252Z,95624.75
2023-05-07T21:31:33.640Z,95584.00
2023-05-07T21:34:03.686Z,95630.47
2023-05-07T21:36:31.856Z,95630.47
2023-05-07T21:39:00.182Z,95563.31
2023-05-07T21:41:28.433Z,95635.69
2023-05-07T21:43:56.595Z,95627.00
2023-05-07T21:46:24.920Z,95623.75
2023-05-07T21:48:53.166Z,95615.63
2023-05-07T21:51:22.800Z,95633.53
2023-05-07T21:53:51.120Z,95640.38
2023-05-07T21:56:19.332Z,95634.16
2023-05-07T21:58:48.670Z,95626.44
2023-05-07T22:01:16.975Z,95588.59
2023-05-07T22:03:45.363Z,95636.81
2023-05-07T22:06:13.685Z,95631.66
2023-05-07T22:08:43.369Z,95636.53
2023-05-07T22:11:11.567Z,95635.25
2023-05-07T22:13:39.835Z,95592.94
2023-05-07T22:16:09.445Z,95618.41
2023-05-07T22:18:37.704Z,95636.63
2023-05-07T22:21:06.361Z,95637.44
2023-05-07T22:23:34.890Z,95607.78
2023-05-07T22:26:11.668Z,95639.91
2023-05-07T22:28:40.240Z,95634.16
2023-05-07T22:31:08.788Z,95638.03
2023-05-07T22:33:37.338Z,95635.72
2023-05-07T22:36:07.924Z,95639.97
2023-05-07T22:38:36.315Z,95640.06
2023-05-07T22:41:06.047Z,95642.03
2023-05-07T22:43:34.316Z,95637.69
2023-05-07T22:46:03.102Z,95560.81
2023-05-07T22:48:31.802Z,95602.22
2023-05-07T22:51:00.094Z,95644.84
2023-05-07T22:53:28.403Z,95640.06
2023-05-07T22:55:56.862Z,95641.09
2023-05-07T22:58:27.049Z,95640.75
2023-05-07T23:00:55.393Z,95642.63
2023-05-07T23:03:24.014Z,95637.47
2023-05-07T23:05:53.607Z,95641.84
2023-05-07T23:08:21.904Z,95640.63
2023-05-07T23:10:50.244Z,95629.97
2023-05-07T23:13:18.653Z,95633.84
2023-05-07T23:15:48.357Z,95631.19
2023-05-07T23:18:16.557Z,95621.38
2023-05-07T23:20:44.967Z,95634.44
2023-05-07T23:23:13.305Z,95631.81
2023-05-07T23:25:41.644Z,95632.63
2023-05-07T23:28:09.999Z,95621.44
2023-05-07T23:30:38.207Z,95627.75
2023-05-07T23:33:07.884Z,95592.91
2023-05-07T23:35:36.140Z,95611.00
2023-05-07T23:38:04.461Z,95611.09
2023-05-07T23:40:32.669Z,95601.31
2023-05-07T23:43:00.953Z,95602.28
2023-05-07T23:45:29.199Z,95605.69
2023-05-07T23:47:57.483Z,95604.41
2023-05-07T23:50:27.037Z,95604.72
2023-05-07T23:52:55.274Z,95600.09
2023-05-07T23:55:23.518Z,95600.91
2023-05-07T23:57:51.769Z,95601.81
